createdAt,value
2023-04-13T00:03:39.813Z,99597.75
2023-04-13T00:08:46.779Z,99594.68
2023-04-13T00:13:53.383Z,99589.48
2023-04-13T00:18:58.947Z,99586.09
2023-04-13T00:24:04.709Z,99584.79
2023-04-13T00:29:10.190Z,99587.11
2023-04-13T00:34:15.664Z,99588.36
2023-04-13T00:39:23.241Z,99588.34
2023-04-13T00:44:28.677Z,99593.12
2023-04-13T00:49:34.804Z,99592.63
2023-04-13T00:54:40.778Z,99595.05
2023-04-13T00:59:57.202Z,99590.35
2023-04-13T01:05:03.379Z,99580.89
2023-04-13T01:10:17.276Z,99583.30
2023-04-13T01:15:23.258Z,99578.23
2023-04-13T01:20:33.010Z,99569.73
2023-04-13T01:25:50.718Z,99569.29
2023-04-13T01:31:00.330Z,99568.07
2023-04-13T01:36:07.854Z,99569.80
2023-04-13T01:41:13.879Z,99570.23
2023-04-13T01:46:26.534Z,99577.20
2023-04-13T01:51:51.496Z,99572.50
2023-04-13T01:57:02.092Z,99567.54
2023-04-13T02:02:07.957Z,99565.21
2023-04-13T02:07:13.861Z,99559.41
2023-04-13T02:12:24.399Z,99558.00
2023-04-13T02:17:30.097Z,99557.92
2023-04-13T02:22:35.693Z,99558.05
2023-04-13T02:27:41.470Z,99565.23
2023-04-13T02:32:49.644Z,99564.92
2023-04-13T02:37:56.087Z,99560.69
2023-04-13T02:43:01.550Z,99558.61
2023-04-13T02:48:12.480Z,99562.20
2023-04-13T02:53:18.452Z,99562.31
2023-04-13T02:58:27.148Z,99566.61
2023-04-13T03:03:38.010Z,99571.44
2023-04-13T03:08:43.896Z,99575.64
2023-04-13T03:13:54.867Z,99579.38
2023-04-13T03:19:01.385Z,99582.30
2023-04-13T03:24:08.741Z,99596.06
2023-04-13T03:29:15.119Z,99604.15
2023-04-13T03:34:22.838Z,99616.75
2023-04-13T03:39:30.196Z,99617.23
2023-04-13T03:44:36.643Z,99623.09
2023-04-13T03:49:43.322Z,99626.83
2023-04-13T03:54:49.100Z,99628.79
2023-04-13T03:59:54.659Z,99633.00
2023-04-13T04:05:08.429Z,99639.80
2023-04-13T04:10:14.745Z,99651.79
2023-04-13T04:15:20.740Z,99656.17
2023-04-13T04:20:28.555Z,99663.42
2023-04-13T04:25:34.488Z,99669.50
2023-04-13T04:30:41.031Z,99672.98
2023-04-13T04:35:51.365Z,99675.27
2023-04-13T04:41:02.257Z,99672.40
2023-04-13T04:46:09.047Z,99672.13
2023-04-13T04:51:16.898Z,99668.00
2023-04-13T04:56:24.028Z,99672.59
2023-04-13T05:01:34.959Z,99673.86
2023-04-13T05:06:45.301Z,99679.80
2023-04-13T05:11:54.861Z,99679.80
2023-04-13T05:17:02.011Z,99671.50
2023-04-13T05:22:10.105Z,99668.91
2023-04-13T05:27:20.062Z,99662.23
2023-04-13T05:32:43.860Z,99663.83
2023-04-13T05:37:50.124Z,99666.67
2023-04-13T05:42:58.858Z,99665.56
2023-04-13T05:48:07.232Z,99664.05
2023-04-13T05:53:13.096Z,99659.14
2023-04-13T05:58:33.504Z,99659.42
2023-04-13T06:04:01.159Z,99653.21
2023-04-13T06:09:08.919Z,99648.63
2023-04-13T06:14:15.242Z,99635.95
2023-04-13T06:19:21.526Z,99622.85
2023-04-13T06:24:27.325Z,99620.42
2023-04-13T06:29:33.233Z,99612.35
2023-04-13T06:34:46.293Z,99607.90
2023-04-13T06:39:53.526Z,99594.59
2023-04-13T06:44:59.993Z,99584.32
2023-04-13T06:50:11.541Z,99583.83
2023-04-13T06:55:17.652Z,99580.54
2023-04-13T07:00:30.195Z,99582.84
2023-04-13T07:05:39.843Z,99587.39
2023-04-13T07:10:54.435Z,99594.52
2023-04-13T07:16:12.439Z,99590.67
2023-04-13T07:21:21.820Z,99597.80
2023-04-13T07:26:41.145Z,99602.73
2023-04-13T07:31:47.915Z,99599.44
2023-04-13T07:36:54.276Z,99595.58
2023-04-13T07:42:01.722Z,99603.91
2023-04-13T07:47:15.305Z,99605.94
2023-04-13T07:52:22.484Z,99611.17
2023-04-13T07:57:28.561Z,99615.19
2023-04-13T08:02:38.807Z,99619.52
2023-04-13T08:07:46.973Z,99620.23
2023-04-13T08:12:53.681Z,99612.92
2023-04-13T08:18:00.037Z,99607.56
2023-04-13T08:23:06.543Z,99610.52
2023-04-13T08:28:12.195Z,99605.86
2023-04-13T08:33:19.459Z,99602.86
2023-04-13T08:38:25.203Z,99600.77
2023-04-13T08:43:32.974Z,99594.90
2023-04-13T08:48:59.075Z,99591.44
2023-04-13T08:54:14.898Z,99583.80
2023-04-13T08:59:23.054Z,99583.60
2023-04-13T09:04:35.648Z,99588.86
2023-04-13T09:09:45.825Z,99597.25
2023-04-13T09:14:51.448Z,99596.02
2023-04-13T09:20:11.176Z,99599.41
2023-04-13T09:25:25.726Z,99598.11
2023-04-13T09:30:31.376Z,99592.77
2023-04-13T09:35:37.888Z,99588.46
2023-04-13T09:40:51.525Z,99590.41
2023-04-13T09:45:57.020Z,99585.01
2023-04-13T09:51:06.523Z,99581.11
2023-04-13T09:56:12.235Z,99578.66
2023-04-13T10:01:19.061Z,99581.55
2023-04-13T10:06:24.890Z,99582.77
2023-04-13T10:11:31.029Z,99585.35
2023-04-13T10:16:59.141Z,99595.07
2023-04-13T10:22:09.386Z,99594.98
2023-04-13T10:27:18.816Z,99598.94
2023-04-13T10:32:25.990Z,99606.43
2023-04-13T10:37:31.662Z,99611.09
2023-04-13T10:47:58.343Z,99608.80
2023-04-13T10:53:05.565Z,99606.41
2023-04-13T10:58:18.433Z,99601.80
2023-04-13T11:03:28.577Z,99601.77
2023-04-13T11:08:37.180Z,99603.91
2023-04-13T11:13:48.380Z,99598.61
2023-04-13T11:19:03.667Z,99599.52
2023-04-13T11:24:10.232Z,99599.48
2023-04-13T11:29:21.091Z,99595.52
2023-04-13T11:34:28.804Z,99601.35
2023-04-13T11:39:36.671Z,99597.89
2023-04-13T11:44:45.675Z,99592.33
2023-04-13T11:49:51.637Z,99592.38
2023-04-13T11:55:00.658Z,99590.75
2023-04-13T12:00:19.906Z,99590.54
2023-04-13T12:05:27.456Z,99590.64
2023-04-13T12:10:45.251Z,99590.30
2023-04-13T12:16:06.052Z,99590.81
2023-04-13T12:21:17.710Z,99592.65
2023-04-13T12:27:16.385Z,99587.91
2023-04-13T12:32:03.911Z,99580.19
2023-04-13T12:37:11.549Z,99581.69
2023-04-13T12:42:17.369Z,99585.57
2023-04-13T12:47:24.598Z,99583.97
2023-04-13T12:52:32.375Z,99576.55
2023-04-13T12:57:39.810Z,99577.94
2023-04-13T13:02:46.092Z,99574.50
2023-04-13T13:07:52.027Z,99575.34
2023-04-13T13:12:58.010Z,99577.14
2023-04-13T13:18:06.838Z,99573.54
2023-04-13T13:23:13.036Z,99569.21
2023-04-13T13:28:18.739Z,99569.27
2023-04-13T13:33:24.534Z,99566.60
2023-04-13T13:38:29.951Z,99566.48
2023-04-13T13:43:35.935Z,99565.20
2023-04-13T13:48:42.304Z,99562.40
2023-04-13T13:54:06.579Z,99563.13
2023-04-13T13:59:12.881Z,99563.98
2023-04-13T14:04:18.859Z,99561.41
2023-04-13T14:09:25.462Z,99565.12
2023-04-13T14:14:31.938Z,99559.52
2023-04-13T14:19:37.433Z,99557.39
2023-04-13T14:24:43.229Z,99557.92
2023-04-13T14:29:48.574Z,99557.30
2023-04-13T14:34:54.898Z,99561.04
2023-04-13T14:40:00.682Z,99566.19
2023-04-13T14:45:10.661Z,99567.13
2023-04-13T14:50:17.085Z,99573.91
2023-04-13T14:55:23.119Z,99578.88
2023-04-13T15:00:41.222Z,99578.48
2023-04-13T15:05:48.274Z,99580.98
2023-04-13T15:10:57.713Z,99585.33
2023-04-13T15:19:43.684Z,99586.64
2023-04-13T15:24:49.247Z,99587.73
2023-04-13T15:30:03.759Z,99594.95
2023-04-13T15:35:12.783Z,99596.11
2023-04-13T15:40:19.485Z,99594.63
2023-04-13T15:45:25.057Z,99598.23
2023-04-13T15:50:30.773Z,99610.40
2023-04-13T15:55:36.228Z,99605.82
2023-04-13T16:00:41.903Z,99609.27
2023-04-13T16:05:50.203Z,99613.69
2023-04-13T16:10:56.167Z,99619.67
2023-04-13T16:16:01.554Z,99622.27
2023-04-13T16:21:07.564Z,99624.80
2023-04-13T16:26:13.094Z,99633.20
2023-04-13T16:31:18.628Z,99634.27
2023-04-13T16:36:24.455Z,99639.92
2023-04-13T16:41:30.708Z,99642.36
2023-04-13T16:46:36.470Z,99647.05
2023-04-13T16:51:42.707Z,99648.31
2023-04-13T16:56:48.910Z,99652.34
2023-04-13T17:01:54.773Z,99655.48
2023-04-13T17:07:02.577Z,99660.38
2023-04-13T17:12:08.404Z,99668.23
2023-04-13T17:17:14.488Z,99671.77
2023-04-13T17:22:20.758Z,99675.87
2023-04-13T17:27:27.283Z,99679.80
2023-04-13T17:32:35.315Z,99690.41
2023-04-13T17:37:41.579Z,99696.62
2023-04-13T17:42:47.504Z,99706.04
2023-04-13T17:47:53.429Z,99711.55
2023-04-13T17:53:00.477Z,99714.26
2023-04-13T17:58:06.448Z,99719.38
2023-04-13T18:03:14.289Z,99725.46
2023-04-13T18:08:20.462Z,99725.06
2023-04-13T18:13:27.492Z,99729.96
2023-04-13T18:18:33.356Z,99736.33
2023-04-13T18:23:40.563Z,99739.89
2023-04-13T18:28:46.800Z,99748.37
2023-04-13T18:33:53.201Z,99753.48
2023-04-13T18:38:58.848Z,99756.23
2023-04-13T18:44:05.074Z,99762.83
2023-04-13T18:49:11.667Z,99765.60
2023-04-13T18:54:17.859Z,99776.12
2023-04-13T18:59:23.392Z,99784.39
2023-04-13T19:04:29.007Z,99787.80
2023-04-13T19:09:36.787Z,99788.73
2023-04-13T19:14:42.897Z,99792.90
2023-04-13T19:19:48.770Z,99790.77
2023-04-13T19:24:54.296Z,99791.68
2023-04-13T19:29:59.962Z,99793.36
2023-04-13T19:35:06.580Z,99798.34
2023-04-13T19:40:14.114Z,99794.02
2023-04-13T19:45:20.461Z,99791.23
2023-04-13T19:50:26.001Z,99792.94
2023-04-13T19:55:31.815Z,99792.31
2023-04-13T20:00:38.469Z,99799.06
2023-04-13T20:05:43.891Z,99796.54
2023-04-13T20:10:50.258Z,99802.20
2023-04-13T20:15:55.840Z,99793.83
2023-04-13T20:21:01.687Z,99797.19
2023-04-13T20:26:07.358Z,99802.81
2023-04-13T20:31:12.839Z,99801.91
2023-04-13T20:36:21.136Z,99805.77
2023-04-13T20:41:27.207Z,99804.46
2023-04-13T20:46:36.140Z,99801.54
2023-04-13T20:51:42.256Z,99800.60
2023-04-13T20:56:50.817Z,99807.88
2023-04-13T21:01:56.256Z,99816.87
2023-04-13T21:07:02.373Z,99821.71
2023-04-13T21:12:08.241Z,99821.38
2023-04-13T21:17:14.106Z,99827.90
2023-04-13T21:22:19.702Z,99830.46
2023-04-13T21:27:25.444Z,99836.19
2023-04-13T21:32:30.986Z,99837.48
2023-04-13T21:37:36.629Z,99837.50
2023-04-13T21:42:43.161Z,99836.60
2023-04-13T21:47:48.755Z,99841.23
2023-04-13T21:52:54.116Z,99843.13
2023-04-13T21:57:59.594Z,99840.89
2023-04-13T22:03:05.231Z,99840.42
2023-04-13T22:08:11.028Z,99844.88
2023-04-13T22:13:16.526Z,99847.73
2023-04-13T22:18:22.221Z,99844.28
2023-04-13T22:23:27.722Z,99849.58
2023-04-13T22:28:33.303Z,99854.17
2023-04-13T22:33:40.482Z,99852.89
2023-04-13T22:38:47.480Z,99856.88
2023-04-13T22:43:52.803Z,99849.77
2023-04-13T22:48:59.081Z,99850.10
2023-04-13T22:54:04.989Z,99847.06
2023-04-13T22:59:10.641Z,99851.14
2023-04-13T23:04:16.542Z,99851.34
2023-04-13T23:09:22.372Z,99848.27
2023-04-13T23:14:27.834Z,99849.02
2023-04-13T23:19:33.271Z,99847.58
2023-04-13T23:24:39.024Z,99845.26
2023-04-13T23:29:48.084Z,99850.31
2023-04-13T23:34:54.513Z,99852.66
2023-04-13T23:40:00.436Z,99853.67
2023-04-13T23:45:07.558Z,99853.78
2023-04-13T23:50:17.779Z,99844.65
2023-04-13T23:55:23.243Z,99845.59
